createdAt,value
2018-01-18T00:01:24.387Z,42.23
2018-01-18T00:03:53.070Z,44.40
2018-01-18T00:06:20.780Z,40.43
2018-01-18T00:08:48.524Z,42.43
2018-01-18T00:11:17.202Z,35.50
2018-01-18T00:13:44.860Z,39.17
2018-01-18T00:16:12.577Z,37.10
2018-01-18T00:18:41.218Z,39.90
2018-01-18T00:21:08.886Z,48.47
2018-01-18T00:23:36.590Z,53.33
2018-01-18T00:26:04.331Z,49.77
2018-01-18T00:28:31.084Z,47.37
2018-01-18T00:30:57.822Z,49.63
2018-01-18T00:33:24.578Z,58.57
2018-01-18T00:35:51.294Z,53.77
2018-01-18T00:38:18.974Z,54.23
2018-01-18T00:40:45.708Z,54.67
2018-01-18T00:43:14.404Z,58.03
2018-01-18T00:45:41.176Z,47.63
2018-01-18T00:48:09.934Z,53.77
2018-01-18T00:50:36.682Z,57.37
2018-01-18T00:53:05.403Z,59.83
2018-01-18T00:55:34.060Z,59.80
2018-01-18T00:58:01.718Z,56.50
2018-01-18T01:00:29.434Z,54.47
2018-01-18T01:02:57.142Z,55.97
2018-01-18T01:05:23.834Z,49.03
2018-01-18T01:07:51.659Z,52.90
2018-01-18T01:10:19.350Z,49.83
2018-01-18T01:12:46.063Z,49.87
2018-01-18T01:15:13.742Z,48.43
2018-01-18T01:17:40.424Z,54.80
2018-01-18T01:20:07.134Z,53.60
2018-01-18T01:22:34.887Z,51.97
2018-01-18T01:25:01.566Z,52.80
2018-01-18T01:27:28.326Z,47.60
2018-01-18T01:29:56.091Z,48.70
2018-01-18T01:32:24.746Z,48.27
2018-01-18T01:34:53.438Z,46.43
2018-01-18T01:37:29.514Z,52.57
2018-01-18T01:39:57.168Z,58.47
2018-01-18T01:42:24.830Z,58.80
2018-01-18T01:44:51.604Z,65.53
2018-01-18T01:47:23.858Z,61.10
2018-01-18T01:49:51.618Z,60.20
2018-01-18T01:52:20.310Z,55.47
2018-01-18T01:54:47.962Z,53.17
2018-01-18T01:57:15.683Z,54.80
2018-01-18T01:59:44.370Z,46.47
2018-01-18T02:02:13.014Z,51.97
2018-01-18T02:04:43.871Z,38.73
2018-01-18T02:07:15.548Z,39.20
2018-01-18T02:09:42.242Z,40.57
2018-01-18T02:12:12.906Z,34.90
2018-01-18T02:14:51.390Z,29.77
2018-01-18T02:17:30.756Z,31.10
2018-01-18T02:20:02.822Z,28.97
2018-01-18T02:22:31.608Z,26.47
2018-01-18T02:25:04.104Z,28.87
2018-01-18T02:27:35.559Z,29.53
2018-01-18T02:30:03.223Z,31.80
2018-01-18T02:32:30.974Z,27.67
2018-01-18T02:34:58.696Z,29.00
2018-01-18T02:37:25.414Z,28.10
2018-01-18T02:39:52.132Z,30.47
2018-01-18T02:42:18.857Z,26.90
2018-01-18T02:44:46.552Z,27.30
2018-01-18T02:47:14.220Z,22.87
2018-01-18T02:49:42.924Z,20.07
2018-01-18T02:52:09.672Z,22.50
2018-01-18T02:54:36.437Z,19.13
2018-01-18T02:57:04.180Z,21.17
2018-01-18T02:59:31.836Z,17.60
2018-01-18T03:02:06.270Z,21.67
2018-01-18T03:04:34.950Z,25.63
2018-01-18T03:07:07.652Z,23.27
2018-01-18T03:09:34.378Z,22.23
2018-01-18T03:12:02.039Z,19.97
2018-01-18T03:14:29.746Z,21.80
2018-01-18T03:16:57.482Z,18.13
2018-01-18T03:22:12.154Z,20.27
2018-01-18T03:24:40.884Z,15.40
2018-01-18T03:27:08.621Z,18.57
2018-01-18T03:29:36.307Z,13.37
2018-01-18T03:32:03.050Z,15.13
2018-01-18T03:34:29.766Z,15.97
2018-01-18T03:36:57.425Z,16.63
2018-01-18T03:39:25.110Z,22.80
2018-01-18T03:41:52.774Z,19.47
2018-01-18T03:44:20.442Z,18.13
2018-01-18T03:46:48.168Z,20.23
2018-01-18T03:49:15.889Z,17.27
2018-01-18T03:51:42.621Z,21.10
2018-01-18T03:54:09.442Z,18.20
2018-01-18T03:56:37.127Z,21.87
2018-01-18T03:59:04.785Z,23.10
2018-01-18T04:01:33.516Z,21.30
2018-01-18T04:04:00.223Z,22.63
2018-01-18T04:06:27.919Z,25.43
2018-01-18T04:08:54.658Z,31.30
2018-01-18T04:11:21.384Z,33.43
2018-01-18T04:13:49.049Z,34.27
2018-01-18T04:16:15.833Z,31.77
2018-01-18T04:18:47.511Z,40.87
2018-01-18T04:21:20.101Z,36.37
2018-01-18T04:23:47.834Z,35.17
2018-01-18T04:26:16.495Z,35.93
2018-01-18T04:28:51.644Z,36.07
2018-01-18T04:31:22.786Z,28.87
2018-01-18T04:33:54.353Z,34.47
2018-01-18T04:36:25.179Z,33.43
2018-01-18T04:38:52.882Z,38.13
2018-01-18T04:41:27.099Z,37.93
2018-01-18T04:43:55.574Z,36.60
2018-01-18T04:46:36.822Z,38.97
2018-01-18T04:49:14.217Z,40.07
2018-01-18T04:51:42.947Z,38.23
2018-01-18T04:54:11.717Z,45.07
2018-01-18T04:56:42.765Z,35.07
2018-01-18T04:59:11.470Z,40.60
2018-01-18T05:01:39.166Z,37.23
2018-01-18T05:04:06.921Z,42.03
2018-01-18T05:06:33.679Z,35.13
2018-01-18T05:09:01.395Z,38.57
2018-01-18T05:11:33.084Z,55.70
2018-01-18T05:14:01.756Z,65.80
2018-01-18T05:16:29.447Z,70.00
2018-01-18T05:18:57.150Z,69.37
2018-01-18T05:21:23.840Z,63.30
2018-01-18T05:23:52.511Z,72.50
2018-01-18T05:26:25.190Z,74.80
2018-01-18T05:28:53.972Z,76.10
2018-01-18T05:31:22.664Z,78.27
2018-01-18T05:33:50.348Z,92.17
2018-01-18T05:36:18.013Z,83.87
2018-01-18T05:38:52.107Z,99.70
2018-01-18T05:41:19.779Z,90.60
2018-01-18T05:43:47.443Z,77.37
2018-01-18T05:46:15.162Z,63.67
2018-01-18T05:48:41.873Z,56.67
2018-01-18T05:51:09.537Z,43.23
2018-01-18T05:53:40.945Z,46.20
2018-01-18T05:56:08.642Z,48.00
2018-01-18T05:58:41.603Z,36.40
2018-01-18T06:01:08.289Z,34.50
2018-01-18T06:03:36.971Z,39.47
2018-01-18T06:06:12.543Z,33.93
2018-01-18T06:08:40.203Z,38.17
2018-01-18T06:11:07.875Z,35.97
2018-01-18T06:13:41.586Z,32.60
2018-01-18T06:18:55.958Z,37.13
2018-01-18T06:21:24.237Z,28.93
2018-01-18T06:23:52.100Z,29.87
2018-01-18T06:26:19.835Z,30.87
2018-01-18T06:28:51.536Z,31.73
2018-01-18T06:31:18.211Z,33.07
2018-01-18T06:33:45.952Z,38.87
2018-01-18T06:36:14.633Z,39.30
2018-01-18T06:38:42.273Z,41.07
2018-01-18T06:41:10.009Z,31.77
2018-01-18T06:43:36.710Z,38.53
2018-01-18T06:46:04.383Z,40.90
2018-01-18T06:48:31.093Z,39.90
2018-01-18T06:50:58.772Z,43.10
2018-01-18T06:53:26.433Z,46.60
2018-01-18T06:55:54.168Z,53.87
2018-01-18T06:58:20.961Z,70.90
2018-01-18T07:00:48.631Z,63.47
2018-01-18T07:03:20.299Z,67.63
2018-01-18T07:05:47.281Z,75.80
2018-01-18T07:08:15.006Z,70.47
2018-01-18T07:10:42.689Z,81.80
2018-01-18T07:13:09.411Z,106.50
2018-01-18T07:15:37.107Z,125.37
2018-01-18T07:18:07.889Z,131.80
2018-01-18T07:20:35.591Z,123.17
2018-01-18T07:23:07.253Z,119.30
2018-01-18T07:25:34.967Z,114.23
2018-01-18T07:28:02.692Z,116.03
2018-01-18T07:30:29.407Z,111.87
2018-01-18T07:32:57.160Z,105.90
2018-01-18T07:35:24.893Z,91.50
2018-01-18T07:37:53.553Z,79.60
2018-01-18T07:40:25.905Z,75.97
2018-01-18T07:42:52.607Z,85.90
2018-01-18T07:45:20.347Z,81.83
2018-01-18T07:47:48.047Z,79.73
2018-01-18T07:50:16.691Z,76.87
2018-01-18T07:52:43.405Z,78.30
2018-01-18T07:55:11.146Z,90.03
2018-01-18T07:57:41.027Z,85.50
2018-01-18T08:00:16.281Z,86.63
2018-01-18T08:02:50.627Z,86.73
2018-01-18T08:05:23.407Z,84.87
2018-01-18T08:10:42.225Z,81.40
2018-01-18T08:13:12.441Z,80.60
2018-01-18T08:15:44.099Z,83.57
2018-01-18T08:18:15.605Z,81.87
2018-01-18T08:20:42.337Z,80.73
2018-01-18T08:23:09.073Z,82.87
2018-01-18T08:25:35.883Z,81.20
2018-01-18T08:28:03.599Z,81.37
2018-01-18T08:30:30.376Z,86.27
2018-01-18T08:32:57.086Z,94.13
2018-01-18T08:35:23.821Z,80.27
2018-01-18T08:37:50.539Z,82.43
2018-01-18T08:40:17.233Z,79.90
2018-01-18T08:42:44.803Z,76.97
2018-01-18T08:45:12.643Z,78.90
2018-01-18T08:47:39.351Z,79.93
2018-01-18T08:50:06.050Z,78.60
2018-01-18T08:52:36.599Z,85.63
2018-01-18T08:55:04.337Z,77.10
2018-01-18T08:57:33.031Z,73.97
2018-01-18T09:00:03.684Z,77.00
2018-01-18T09:02:49.517Z,65.60
2018-01-18T09:05:18.299Z,70.80
2018-01-18T09:07:46.962Z,57.67
2018-01-18T09:10:14.608Z,60.70
2018-01-18T09:12:43.328Z,55.97
2018-01-18T09:15:11.992Z,56.27
2018-01-18T09:17:39.650Z,61.80
2018-01-18T09:20:07.333Z,60.47
2018-01-18T09:22:38.203Z,60.47
2018-01-18T09:25:06.877Z,63.87
2018-01-18T09:27:38.235Z,62.53
2018-01-18T09:32:50.349Z,55.20
2018-01-18T09:35:19.024Z,49.73
2018-01-18T09:37:45.774Z,50.23
2018-01-18T09:40:12.515Z,49.67
2018-01-18T09:42:40.160Z,50.90
2018-01-18T09:45:06.853Z,45.57
2018-01-18T09:47:38.193Z,41.67
2018-01-18T09:50:04.901Z,40.27
2018-01-18T09:52:31.616Z,41.13
2018-01-18T09:54:59.364Z,40.37
2018-01-18T09:57:26.082Z,33.67
2018-01-18T09:59:52.815Z,36.47
2018-01-18T10:02:19.618Z,35.27
2018-01-18T10:04:46.384Z,38.23
2018-01-18T10:07:15.128Z,36.20
2018-01-18T10:09:46.777Z,30.00
2018-01-18T10:12:13.547Z,33.17
2018-01-18T10:14:41.917Z,32.90
2018-01-18T10:17:09.685Z,33.50
2018-01-18T10:19:39.580Z,33.43
2018-01-18T10:22:13.680Z,34.37
2018-01-18T10:24:46.119Z,33.87
2018-01-18T10:27:12.840Z,31.60
2018-01-18T10:29:39.603Z,38.93
2018-01-18T10:32:06.532Z,29.07
2018-01-18T10:34:34.150Z,28.30
2018-01-18T10:37:01.879Z,32.97
2018-01-18T10:39:29.611Z,25.50
2018-01-18T10:41:56.364Z,40.03
2018-01-18T10:44:23.159Z,31.07
2018-01-18T10:46:51.879Z,24.73
2018-01-18T10:49:18.623Z,20.37
2018-01-18T10:51:46.300Z,19.03
2018-01-18T10:54:13.043Z,19.33
2018-01-18T10:56:40.731Z,17.83
2018-01-18T10:59:07.457Z,17.97
2018-01-18T11:01:35.111Z,16.80
2018-01-18T11:04:06.391Z,14.37
2018-01-18T11:06:36.212Z,14.77
2018-01-18T11:09:03.868Z,19.50
2018-01-18T11:11:34.694Z,17.80
2018-01-18T11:14:01.453Z,19.33
2018-01-18T11:16:28.182Z,18.27
2018-01-18T11:18:54.908Z,20.10
2018-01-18T11:21:22.615Z,22.23
2018-01-18T11:23:50.247Z,27.13
2018-01-18T11:26:16.945Z,23.80
2018-01-18T11:28:47.637Z,23.90
2018-01-18T11:31:14.366Z,22.17
2018-01-18T11:33:42.048Z,26.17
2018-01-18T11:36:08.784Z,22.90
2018-01-18T11:38:36.482Z,18.10
2018-01-18T11:41:03.211Z,17.67
2018-01-18T11:43:30.005Z,18.57
2018-01-18T11:45:57.728Z,22.93
2018-01-18T11:48:26.400Z,20.70
2018-01-18T11:50:54.078Z,21.87
2018-01-18T11:53:22.741Z,20.23
2018-01-18T11:55:50.448Z,15.50
2018-01-18T11:58:19.132Z,15.43
2018-01-18T12:00:46.806Z,15.30
2018-01-18T12:03:14.436Z,16.67
2018-01-18T12:05:45.122Z,17.70
2018-01-18T12:08:24.915Z,15.30
2018-01-18T12:11:04.290Z,20.80
2018-01-18T12:13:36.972Z,20.17
2018-01-18T12:16:04.648Z,17.83
2018-01-18T12:18:32.318Z,17.67
2018-01-18T12:20:59.968Z,16.17
2018-01-18T12:23:46.366Z,12.83
2018-01-18T12:26:14.875Z,16.80
2018-01-18T12:31:29.313Z,18.37
2018-01-18T12:33:57.078Z,20.03
2018-01-18T12:36:27.089Z,17.10
2018-01-18T12:38:56.942Z,15.13
2018-01-18T12:41:25.221Z,16.50
2018-01-18T12:43:51.977Z,18.37
2018-01-18T12:46:18.736Z,28.73
2018-01-18T12:48:45.450Z,29.40
2018-01-18T12:51:16.010Z,27.57
2018-01-18T12:53:47.808Z,33.70
2018-01-18T12:56:15.510Z,21.47
2018-01-18T12:58:42.256Z,19.80
2018-01-18T13:01:09.033Z,15.37
2018-01-18T13:03:35.842Z,18.10
2018-01-18T13:06:04.521Z,18.27
2018-01-18T13:08:31.306Z,21.03
2018-01-18T13:10:58.026Z,20.70
2018-01-18T13:13:25.686Z,27.53
2018-01-18T13:15:59.610Z,18.83
2018-01-18T13:21:16.794Z,24.43
2018-01-18T13:23:53.476Z,23.60
2018-01-18T13:26:23.968Z,25.03
2018-01-18T13:28:58.096Z,21.73
2018-01-18T13:31:25.733Z,21.60
2018-01-18T13:33:53.427Z,18.60
2018-01-18T13:36:34.469Z,21.23
2018-01-18T13:39:18.960Z,19.53
2018-01-18T13:42:04.338Z,27.97
2018-01-18T13:44:43.647Z,24.23
2018-01-18T13:47:11.411Z,23.90
2018-01-18T13:49:39.100Z,23.97
2018-01-18T13:52:06.772Z,17.00
2018-01-18T13:54:33.542Z,19.93
2018-01-18T13:57:02.207Z,19.20
2018-01-18T13:59:29.871Z,22.40
2018-01-18T14:01:56.615Z,21.80
2018-01-18T14:04:24.179Z,16.80
2018-01-18T14:06:50.866Z,22.57
2018-01-18T14:09:18.860Z,20.07
2018-01-18T14:11:46.550Z,21.93
2018-01-18T14:14:13.266Z,21.43
2018-01-18T14:16:41.000Z,26.80
2018-01-18T14:19:12.206Z,18.70
2018-01-18T14:21:43.529Z,20.80
2018-01-18T14:24:11.258Z,22.90
2018-01-18T14:26:39.000Z,18.83
2018-01-18T14:29:07.718Z,16.50
2018-01-18T14:31:35.437Z,16.53
2018-01-18T14:34:03.128Z,22.50
2018-01-18T14:36:30.838Z,23.30
2018-01-18T14:38:58.638Z,18.93
2018-01-18T14:41:26.340Z,29.10
2018-01-18T14:43:55.489Z,19.83
2018-01-18T14:46:23.212Z,20.17
2018-01-18T14:48:49.948Z,18.60
2018-01-18T14:51:17.618Z,27.17
2018-01-18T14:53:46.302Z,29.07
2018-01-18T14:56:13.976Z,24.80
2018-01-18T14:58:40.674Z,31.20
2018-01-18T15:01:08.393Z,29.40
2018-01-18T15:03:35.111Z,25.60
2018-01-18T15:06:03.833Z,21.17
2018-01-18T15:08:30.560Z,23.17
2018-01-18T15:19:23.382Z,26.67
2018-01-18T15:21:50.086Z,19.23
2018-01-18T15:24:26.570Z,21.50
2018-01-18T15:32:31.366Z,12.10
2018-01-18T15:35:07.232Z,15.33
2018-01-18T15:37:34.902Z,16.80
2018-01-18T15:40:02.593Z,16.50
2018-01-18T15:42:30.230Z,21.73
2018-01-18T15:44:56.929Z,26.77
2018-01-18T15:47:24.650Z,25.50
2018-01-18T15:49:51.779Z,19.70
2018-01-18T15:52:19.413Z,19.63
2018-01-18T15:54:47.118Z,21.50
2018-01-18T15:57:13.800Z,20.70
2018-01-18T15:59:40.530Z,20.63
2018-01-18T16:02:07.250Z,21.23
2018-01-18T16:04:33.940Z,20.43
2018-01-18T16:07:01.702Z,19.13
2018-01-18T16:09:28.385Z,23.00
2018-01-18T16:11:58.239Z,19.63
2018-01-18T16:14:24.938Z,29.93
2018-01-18T16:16:52.766Z,20.10
2018-01-18T16:19:23.082Z,20.43
2018-01-18T16:21:53.946Z,22.10
2018-01-18T16:24:36.404Z,24.53
2018-01-18T16:27:13.503Z,24.13
2018-01-18T16:29:52.903Z,26.90
2018-01-18T16:32:20.639Z,30.90
2018-01-18T16:34:51.475Z,25.17
2018-01-18T16:37:26.098Z,20.90
2018-01-18T16:39:53.748Z,20.93
2018-01-18T16:42:21.438Z,16.17
2018-01-18T16:44:48.226Z,18.43
2018-01-18T16:47:14.910Z,15.47
2018-01-18T16:49:46.702Z,19.77
2018-01-18T16:52:16.269Z,26.53
2018-01-18T16:54:43.957Z,25.93
2018-01-18T16:57:17.693Z,28.40
2018-01-18T17:02:31.667Z,24.33
2018-01-18T17:04:58.920Z,20.73
2018-01-18T17:07:25.816Z,18.30
2018-01-18T17:09:52.819Z,22.67
2018-01-18T17:12:19.860Z,25.27
2018-01-18T17:14:48.238Z,29.47
2018-01-18T17:17:15.313Z,29.30
2018-01-18T17:19:45.238Z,25.43
2018-01-18T17:22:12.927Z,19.20
2018-01-18T17:24:39.643Z,17.70
2018-01-18T17:27:06.359Z,22.13
2018-01-18T17:29:33.329Z,18.30
2018-01-18T17:32:00.396Z,17.10
2018-01-18T17:34:27.229Z,17.60
2018-01-18T17:36:53.960Z,25.43
2018-01-18T17:39:20.717Z,21.97
2018-01-18T17:41:50.647Z,21.50
2018-01-18T17:44:18.581Z,20.37
2018-01-18T17:46:45.401Z,10.73
2018-01-18T17:49:13.077Z,10.40
2018-01-18T17:51:39.774Z,8.17
2018-01-18T17:54:06.491Z,9.57
2018-01-18T17:56:33.195Z,12.67
2018-01-18T17:59:01.938Z,17.13
2018-01-18T18:01:28.655Z,19.13
2018-01-18T18:03:55.329Z,17.13
2018-01-18T18:06:26.036Z,12.87
2018-01-18T18:08:52.767Z,14.93
2018-01-18T18:11:19.461Z,15.47
2018-01-18T18:13:49.275Z,20.73
2018-01-18T18:16:15.993Z,13.57
2018-01-18T18:18:42.783Z,17.80
2018-01-18T18:21:09.505Z,19.10
2018-01-18T18:23:36.499Z,23.23
2018-01-18T18:26:03.208Z,20.07
2018-01-18T18:28:30.143Z,22.03
2018-01-18T18:30:56.898Z,25.57
2018-01-18T18:33:23.625Z,21.23
2018-01-18T18:35:50.321Z,21.33
2018-01-18T18:38:26.373Z,18.70
2018-01-18T18:40:53.098Z,18.27
2018-01-18T18:43:19.839Z,15.77
2018-01-18T18:45:46.563Z,16.47
2018-01-18T18:48:13.327Z,11.73
2018-01-18T18:50:40.039Z,17.17
2018-01-18T18:53:07.060Z,14.50
2018-01-18T18:55:33.749Z,20.33
2018-01-18T18:58:00.431Z,14.37
2018-01-18T19:00:27.145Z,14.63
2018-01-18T19:02:54.585Z,12.70
2018-01-18T19:05:21.304Z,13.23
2018-01-18T19:07:48.074Z,15.47
2018-01-18T19:10:14.774Z,11.87
2018-01-18T19:12:41.489Z,13.83
2018-01-18T19:15:08.239Z,14.93
2018-01-18T19:17:34.931Z,14.97
2018-01-18T19:20:01.643Z,10.07
2018-01-18T19:22:28.346Z,13.20
2018-01-18T19:24:55.025Z,13.90
2018-01-18T19:27:22.895Z,12.20
2018-01-18T19:29:49.607Z,14.50
2018-01-18T19:32:18.239Z,16.20
2018-01-18T19:34:44.913Z,11.40
2018-01-18T19:37:13.613Z,14.57
2018-01-18T19:39:40.307Z,16.03
2018-01-18T19:42:06.991Z,16.00
2018-01-18T19:44:33.691Z,15.13
2018-01-18T19:47:00.381Z,14.30
2018-01-18T19:49:27.081Z,16.23
2018-01-18T19:51:53.817Z,11.77
2018-01-18T19:54:20.566Z,13.73
2018-01-18T19:56:48.141Z,13.00
2018-01-18T19:59:14.825Z,12.37
2018-01-18T20:01:41.512Z,10.03
2018-01-18T20:04:08.221Z,8.83
2018-01-18T20:06:35.005Z,9.30
2018-01-18T20:09:02.505Z,13.80
2018-01-18T20:11:29.321Z,9.07
2018-01-18T20:13:56.027Z,8.73
2018-01-18T20:16:22.884Z,11.87
2018-01-18T20:18:49.602Z,14.03
2018-01-18T20:21:16.452Z,14.13
2018-01-18T20:23:43.136Z,13.77
2018-01-18T20:26:09.815Z,13.53
2018-01-18T20:28:36.519Z,14.70
2018-01-18T20:31:03.213Z,11.73
2018-01-18T20:33:29.934Z,16.30
2018-01-18T20:35:56.638Z,15.63
2018-01-18T20:38:24.181Z,12.90
2018-01-18T20:40:50.857Z,11.33
2018-01-18T20:43:17.629Z,16.07
2018-01-18T20:45:45.306Z,15.60
2018-01-18T20:48:11.987Z,12.77
2018-01-18T20:50:38.695Z,13.63
2018-01-18T20:53:05.383Z,15.83
2018-01-18T20:55:32.065Z,17.43
2018-01-18T20:58:00.807Z,13.47
2018-01-18T21:00:27.487Z,12.67
2018-01-18T21:02:54.233Z,12.80
2018-01-18T21:05:20.961Z,9.13
2018-01-18T21:07:47.639Z,10.83
2018-01-18T21:10:14.405Z,10.90
2018-01-18T21:12:41.122Z,11.23
2018-01-18T21:15:07.815Z,11.17
2018-01-18T21:17:34.687Z,10.80
2018-01-18T21:20:02.385Z,13.13
2018-01-18T21:22:29.084Z,11.77
2018-01-18T21:24:56.822Z,11.97
2018-01-18T21:27:24.507Z,11.47
2018-01-18T21:29:52.227Z,11.00
2018-01-18T21:32:18.901Z,10.27
2018-01-18T21:34:46.561Z,10.40
2018-01-18T21:37:13.240Z,10.53
2018-01-18T21:39:41.964Z,10.17
2018-01-18T21:42:08.681Z,11.97
2018-01-18T21:44:36.364Z,10.63
2018-01-18T21:47:03.054Z,14.30
2018-01-18T21:49:30.701Z,18.37
2018-01-18T21:51:57.413Z,17.43
2018-01-18T21:54:25.108Z,15.33
2018-01-18T21:56:52.802Z,11.97
2018-01-18T21:59:19.495Z,16.53
2018-01-18T22:01:46.183Z,13.47
2018-01-18T22:04:16.926Z,10.80
2018-01-18T22:06:47.689Z,12.23
2018-01-18T22:09:14.470Z,11.80
2018-01-18T22:11:43.183Z,9.20
2018-01-18T22:14:09.914Z,14.03
2018-01-18T22:16:37.576Z,11.03
2018-01-18T22:19:04.342Z,12.40
2018-01-18T22:21:35.462Z,13.63
2018-01-18T22:24:07.144Z,12.10
2018-01-18T22:26:33.858Z,11.77
2018-01-18T22:29:01.575Z,12.53
2018-01-18T22:31:30.261Z,13.60
2018-01-18T22:33:57.887Z,5.83
2018-01-18T22:36:27.500Z,10.10
2018-01-18T22:38:55.192Z,5.30
2018-01-18T22:41:23.874Z,6.70
2018-01-18T22:43:50.587Z,7.13
2018-01-18T22:46:18.301Z,7.30
2018-01-18T22:48:45.007Z,7.77
2018-01-18T22:51:12.685Z,4.53
2018-01-18T22:53:43.313Z,6.20
2018-01-18T22:56:11.475Z,6.30
2018-01-18T22:58:39.157Z,6.80
2018-01-18T23:01:07.883Z,7.83
2018-01-18T23:03:34.607Z,7.80
2018-01-18T23:06:01.339Z,11.83
2018-01-18T23:08:29.013Z,8.70
2018-01-18T23:10:55.719Z,7.90
2018-01-18T23:13:23.386Z,7.30
2018-01-18T23:15:51.100Z,5.10
2018-01-18T23:18:17.823Z,6.23
2018-01-18T23:20:44.563Z,9.43
2018-01-18T23:23:11.263Z,5.67
2018-01-18T23:25:38.970Z,3.77
2018-01-18T23:28:06.623Z,7.83
2018-01-18T23:30:34.319Z,7.27
2018-01-18T23:33:01.984Z,3.33
2018-01-18T23:35:28.770Z,4.80
2018-01-18T23:37:56.507Z,4.07
2018-01-18T23:40:23.231Z,5.07
2018-01-18T23:42:50.889Z,7.13
2018-01-18T23:45:19.602Z,5.03
2018-01-18T23:47:46.329Z,4.43
2018-01-18T23:50:13.099Z,2.67
2018-01-18T23:52:40.779Z,6.27
2018-01-18T23:55:08.405Z,3.07
2018-01-18T23:57:36.074Z,3.80
